To NAV CANADA Home Page Login to a new session Search on AWWS site Feedback and Comments Disclaimer Vers la page française équivalente Tips FAQ What's new on the site To the Forecasts and Observations / NOTAM section To "File a Flight Plan" website Publications and other links Update of the User's profile FIC Telephone Numbers My Weather Data Folder Route Weather Data Regional Weather Data Local Weather Data To the Forecasts and Observations / NOTAM section
Request Generated 05/26/2016 at 16:19:00 UTC . Weather information available at that time is displayed.

METAR/TAF

SWIFT CURRENT/SK    (show WxCam)

METAR CYYN 261600Z AUTO 34009KT 9SM FEW007 SCT029 OVC048 12/10 A2990
RMK SLP135 DENSITY ALT 2900FT=
SPECI CYYN 261539Z AUTO 35007KT 9SM FEW008 SCT036 OVC046 11/10 A2991
RMK SLP137 DENSITY ALT 2800FT=
SPECI CYYN 261512Z AUTO 34008KT 9SM -RA SCT006 SCT011 BKN034 OVC050
11/10 A2990 RMK SLP136 DENSITY ALT 2800FT=
SPECI CYYN 261501Z AUTO 35009KT 9SM -RA BKN006 BKN011 OVC033 11/11
A2990 RMK SLP136 DENSITY ALT 2800FT=
SPECI CYYN 261502Z AUTO 35010KT 9SM -RA SCT006 BKN011 OVC033 11/10
A2990 RMK SLP136 DENSITY ALT 2800FT=
METAR CYYN 261500Z AUTO 35008KT 9SM -RA BKN008 BKN011 OVC033 11/10
A2991 RMK SLP137 DENSITY ALT 2800FT=
SPECI CYYN 261459Z AUTO 35009KT 9SM -RA BKN008 BKN011 OVC033 11/10
A2991 RMK SLP137 DENSITY ALT 2800FT=
SPECI CYYN 261454Z AUTO 35009KT 9SM -RA SCT008 BKN013 OVC033 11/10
A2991 RMK SLP137 DENSITY ALT 2800FT=
SPECI CYYN 261452Z AUTO 35008KT 9SM -RA BKN008 BKN013 OVC033 11/10
A2990 RMK SLP136 DENSITY ALT 2800FT=
SPECI CYYN 261445Z AUTO 35008KT 9SM -RA SCT006 BKN011 OVC033 11/10
A2990 RMK SLP136 DENSITY ALT 2800FT=
SPECI CYYN 261441Z AUTO 36006KT 9SM -RA BKN008 OVC033 11/10 A2990 RMK
SLP136 DENSITY ALT 2800FT=
SPECI CYYN 261423Z AUTO 36006KT 9SM -RA BKN006 BKN060 OVC071 11/10
A2991 RMK SLP137 DENSITY ALT 2800FT=
METAR CYYN 261400Z AUTO 36006KT 9SM -RA FEW004 OVC065 11/10 A2990 RMK
SLP135 DENSITY ALT 2700FT=

TAF AMD CYYN 261610Z 2616/2624 34010KT P6SM SCT008 BKN040 TEMPO
2616/2618 P6SM -SHRA BKN008 OVC040
FM261800 09008KT P6SM -SHRA BKN015 PROB30 2618/2623 VRB15G25KT
4SM TSRA BKN015CB
RMK FCST BASED ON AUTO OBS. NXT FCST BY 261800Z=
Your time UTC time
Weather data provided by Environment Canada and NAV CANADA